createdAt,value
2017-12-02T00:02:01.469Z,1.70
2017-12-02T00:04:28.931Z,1.80
2017-12-02T00:06:56.394Z,1.90
2017-12-02T00:09:24.619Z,1.80
2017-12-02T00:11:52.090Z,1.80
2017-12-02T00:14:19.542Z,1.80
2017-12-02T00:16:47.010Z,1.80
2017-12-02T00:19:14.466Z,1.80
2017-12-02T00:21:41.931Z,1.90
2017-12-02T00:24:09.387Z,1.90
2017-12-02T00:26:36.859Z,1.90
2017-12-02T00:29:04.314Z,2.00
2017-12-02T00:31:31.778Z,1.90
2017-12-02T00:33:59.994Z,2.00
2017-12-02T00:36:27.478Z,2.00
2017-12-02T00:38:54.931Z,1.90
2017-12-02T00:41:22.398Z,2.00
2017-12-02T00:43:49.855Z,2.10
2017-12-02T00:46:17.327Z,2.10
2017-12-02T00:48:44.783Z,2.20
2017-12-02T00:51:12.252Z,2.10
2017-12-02T00:53:39.717Z,2.20
2017-12-02T00:56:07.939Z,2.20
2017-12-02T00:58:35.405Z,2.20
2017-12-02T01:01:02.894Z,2.20
2017-12-02T01:03:31.118Z,2.30
2017-12-02T01:05:58.598Z,2.30
2017-12-02T01:08:26.057Z,2.30
2017-12-02T01:10:53.527Z,2.30
2017-12-02T01:13:20.986Z,2.30
2017-12-02T01:15:48.442Z,2.30
2017-12-02T01:18:15.906Z,2.40
2017-12-02T01:20:44.279Z,2.20
2017-12-02T01:23:11.731Z,2.20
2017-12-02T01:25:39.186Z,2.20
2017-12-02T01:28:07.459Z,2.20
2017-12-02T01:30:35.011Z,2.20
2017-12-02T01:33:02.770Z,2.10
2017-12-02T01:35:30.234Z,2.20
2017-12-02T01:37:57.698Z,2.20
2017-12-02T01:40:25.590Z,2.30
2017-12-02T01:42:53.811Z,2.20
2017-12-02T01:45:21.272Z,2.30
2017-12-02T01:47:48.732Z,2.30
2017-12-02T01:50:16.207Z,2.30
2017-12-02T01:52:43.671Z,2.30
2017-12-02T01:55:11.118Z,2.30
2017-12-02T01:57:39.407Z,2.30
2017-12-02T02:00:06.859Z,2.30
2017-12-02T02:02:34.326Z,2.30
2017-12-02T02:05:01.781Z,2.30
2017-12-02T02:07:29.242Z,2.30
2017-12-02T02:09:56.696Z,2.20
2017-12-02T02:12:24.164Z,2.20
2017-12-02T02:14:51.695Z,2.20
2017-12-02T02:17:19.160Z,2.30
2017-12-02T02:19:46.606Z,2.30
2017-12-02T02:22:14.058Z,2.30
2017-12-02T02:24:41.526Z,2.30
2017-12-02T02:27:08.983Z,2.40
2017-12-02T02:29:36.443Z,2.30
2017-12-02T02:32:03.994Z,2.30
2017-12-02T02:34:31.454Z,2.30
2017-12-02T02:36:58.911Z,2.30
2017-12-02T02:39:26.387Z,2.30
2017-12-02T02:41:54.624Z,2.30
2017-12-02T02:44:22.088Z,2.30
2017-12-02T02:46:49.550Z,2.30
2017-12-02T02:49:17.015Z,2.30
2017-12-02T02:51:44.478Z,2.30
2017-12-02T02:54:11.952Z,2.30
2017-12-02T02:56:40.203Z,2.20
2017-12-02T02:59:07.670Z,2.20
2017-12-02T03:01:35.219Z,2.20
2017-12-02T03:04:02.780Z,2.20
2017-12-02T03:06:30.230Z,2.30
2017-12-02T03:08:57.699Z,2.30
2017-12-02T03:11:25.267Z,2.20
2017-12-02T03:13:53.509Z,2.30
2017-12-02T03:16:20.972Z,2.30
2017-12-02T03:18:48.441Z,2.30
2017-12-02T03:21:15.899Z,2.40
2017-12-02T03:23:43.374Z,2.40
2017-12-02T03:26:11.894Z,2.40
2017-12-02T03:28:39.372Z,2.30
2017-12-02T03:31:06.826Z,2.40
2017-12-02T03:33:34.287Z,2.40
2017-12-02T03:36:01.753Z,2.50
2017-12-02T03:38:29.211Z,2.30
2017-12-02T03:40:56.683Z,2.40
2017-12-02T03:43:24.149Z,2.40
2017-12-02T03:45:51.614Z,2.40
2017-12-02T03:48:19.840Z,2.30
2017-12-02T03:50:47.307Z,2.30
2017-12-02T03:53:14.759Z,2.40
2017-12-02T03:55:42.231Z,2.40
2017-12-02T03:58:09.702Z,2.50
2017-12-02T04:00:37.172Z,2.50
2017-12-02T04:03:05.392Z,2.40
2017-12-02T04:05:32.867Z,2.40
2017-12-02T04:08:00.323Z,2.30
2017-12-02T04:10:27.790Z,2.30
2017-12-02T04:12:55.251Z,2.30
2017-12-02T04:15:22.717Z,2.30
2017-12-02T04:17:50.528Z,2.30
2017-12-02T04:20:17.991Z,2.30
2017-12-02T04:22:45.471Z,2.50
2017-12-02T04:25:12.939Z,2.60
2017-12-02T04:27:40.404Z,2.70
2017-12-02T04:30:07.873Z,2.70
2017-12-02T04:32:35.328Z,2.70
2017-12-02T04:35:02.807Z,2.60
2017-12-02T04:37:31.033Z,2.60
2017-12-02T04:39:58.499Z,2.60
2017-12-02T04:42:25.954Z,2.60
2017-12-02T04:44:53.458Z,2.60
2017-12-02T04:47:21.675Z,2.50
2017-12-02T04:49:49.140Z,2.50
2017-12-02T04:52:16.613Z,2.50
2017-12-02T04:54:44.069Z,2.50
2017-12-02T04:57:11.543Z,2.30
2017-12-02T04:59:39.758Z,2.40
2017-12-02T05:02:07.232Z,2.30
2017-12-02T05:04:34.686Z,2.40
2017-12-02T05:07:02.154Z,2.40
2017-12-02T05:09:29.611Z,2.20
2017-12-02T05:11:57.083Z,2.20
2017-12-02T05:14:24.900Z,2.20
2017-12-02T05:16:52.766Z,2.20
2017-12-02T05:19:20.215Z,2.20
2017-12-02T05:21:47.682Z,2.10
2017-12-02T05:24:15.139Z,2.00
2017-12-02T05:26:42.607Z,1.90
2017-12-02T05:29:10.060Z,1.90
2017-12-02T05:31:37.531Z,2.00
2017-12-02T05:34:04.999Z,2.10
2017-12-02T05:36:32.475Z,2.20
2017-12-02T05:38:59.944Z,2.20
2017-12-02T05:41:28.183Z,2.30
2017-12-02T05:43:55.650Z,2.20
2017-12-02T05:46:23.116Z,2.20
2017-12-02T05:48:50.579Z,2.00
2017-12-02T05:51:18.047Z,1.90
2017-12-02T05:53:46.275Z,1.90
2017-12-02T05:56:13.743Z,1.90
2017-12-02T05:58:41.194Z,1.80
2017-12-02T06:01:08.658Z,1.90
2017-12-02T06:03:36.122Z,2.00
2017-12-02T06:06:03.591Z,2.10
2017-12-02T06:08:31.065Z,2.10
2017-12-02T06:10:59.287Z,2.10
2017-12-02T06:13:26.751Z,2.10
2017-12-02T06:15:54.975Z,2.10
2017-12-02T06:18:23.211Z,2.00
2017-12-02T06:20:50.671Z,2.00
2017-12-02T06:23:18.143Z,1.90
2017-12-02T06:25:45.605Z,1.80
2017-12-02T06:28:14.101Z,1.90
2017-12-02T06:30:42.347Z,2.00
2017-12-02T06:33:09.819Z,2.00
2017-12-02T06:35:37.279Z,2.00
2017-12-02T06:38:05.662Z,1.90
2017-12-02T06:40:33.900Z,1.90
2017-12-02T06:43:01.371Z,1.90
2017-12-02T06:45:28.830Z,1.70
2017-12-02T06:47:56.387Z,1.80
2017-12-02T06:50:23.958Z,1.90
2017-12-02T06:52:51.423Z,2.00
2017-12-02T06:55:19.683Z,2.00
2017-12-02T06:57:47.164Z,2.00
2017-12-02T07:00:15.416Z,2.10
2017-12-02T07:02:42.887Z,2.10
2017-12-02T07:05:10.348Z,2.20
2017-12-02T07:07:38.587Z,2.20
2017-12-02T07:10:06.048Z,2.20
2017-12-02T07:12:33.516Z,2.20
2017-12-02T07:15:00.972Z,2.10
2017-12-02T07:17:28.451Z,2.00
2017-12-02T07:19:56.752Z,2.00
2017-12-02T07:22:24.222Z,2.00
2017-12-02T07:24:51.686Z,2.00
2017-12-02T07:27:19.154Z,2.00
2017-12-02T07:29:46.611Z,2.00
2017-12-02T07:32:14.198Z,2.10
2017-12-02T07:34:41.670Z,2.10
2017-12-02T07:37:09.927Z,1.70
2017-12-02T07:39:37.487Z,1.60
2017-12-02T07:42:04.955Z,1.70
2017-12-02T07:44:32.465Z,1.80
2017-12-02T07:47:00.655Z,1.90
2017-12-02T07:49:28.132Z,1.90
2017-12-02T07:51:57.315Z,1.70
2017-12-02T07:54:24.787Z,1.70
2017-12-02T07:56:52.243Z,1.60
2017-12-02T07:59:19.723Z,1.70
2017-12-02T08:01:47.948Z,1.60
2017-12-02T08:04:15.420Z,1.60
2017-12-02T08:06:42.990Z,1.60
2017-12-02T08:09:10.459Z,1.70
2017-12-02T08:11:37.919Z,1.80
2017-12-02T08:14:05.390Z,1.90
2017-12-02T08:16:33.621Z,1.90
2017-12-02T08:19:01.084Z,1.80
2017-12-02T08:21:28.551Z,1.90
2017-12-02T08:23:56.051Z,1.90
2017-12-02T08:26:23.506Z,1.70
2017-12-02T08:28:51.004Z,1.70
2017-12-02T08:31:18.490Z,1.80
2017-12-02T08:33:45.963Z,1.90
2017-12-02T08:36:14.200Z,1.90
2017-12-02T08:38:41.663Z,1.90
2017-12-02T08:41:09.139Z,2.00
2017-12-02T08:43:36.599Z,2.00
2017-12-02T08:46:04.859Z,2.00
2017-12-02T08:48:32.311Z,2.00
2017-12-02T08:50:59.781Z,2.10
2017-12-02T08:53:27.248Z,2.10
2017-12-02T08:55:55.483Z,2.10
2017-12-02T08:58:22.943Z,2.10
2017-12-02T09:00:50.416Z,2.20
2017-12-02T09:03:17.871Z,2.20
2017-12-02T09:05:45.331Z,2.20
2017-12-02T09:08:12.801Z,2.20
2017-12-02T09:10:40.349Z,2.30
2017-12-02T09:13:07.798Z,2.20
2017-12-02T09:15:35.286Z,2.30
2017-12-02T09:18:03.535Z,2.10
2017-12-02T09:20:31.011Z,2.00
2017-12-02T09:22:59.275Z,1.90
2017-12-02T09:25:26.832Z,1.90
2017-12-02T09:27:54.287Z,1.90
2017-12-02T09:30:21.771Z,1.90
2017-12-02T09:32:50.016Z,2.10
2017-12-02T09:35:17.475Z,2.10
2017-12-02T09:37:44.951Z,2.10
2017-12-02T09:40:13.170Z,2.20
2017-12-02T09:42:40.652Z,2.20
2017-12-02T09:45:08.133Z,2.30
2017-12-02T09:47:35.590Z,2.20
2017-12-02T09:50:03.046Z,2.30
2017-12-02T09:52:30.521Z,2.40
2017-12-02T09:54:58.745Z,2.50
2017-12-02T09:57:26.215Z,2.50
2017-12-02T09:59:53.676Z,2.60
2017-12-02T10:02:21.147Z,2.60
2017-12-02T10:04:48.607Z,2.60
2017-12-02T10:07:16.105Z,2.50
2017-12-02T10:09:43.561Z,2.40
2017-12-02T10:12:11.027Z,2.60
2017-12-02T10:14:38.560Z,3.10
2017-12-02T10:17:06.795Z,3.40
2017-12-02T10:19:34.255Z,3.40
2017-12-02T10:22:01.751Z,3.20
2017-12-02T10:24:29.966Z,2.90
2017-12-02T10:26:57.626Z,2.90
2017-12-02T10:29:25.108Z,2.90
2017-12-02T10:31:52.567Z,2.80
2017-12-02T10:34:20.043Z,2.70
2017-12-02T10:36:48.268Z,2.80
2017-12-02T10:39:15.740Z,2.80
2017-12-02T10:41:43.199Z,2.80
2017-12-02T10:44:10.667Z,2.50
2017-12-02T10:46:38.167Z,2.60
2017-12-02T10:49:05.627Z,2.60
2017-12-02T10:51:33.082Z,2.50
2017-12-02T10:54:00.587Z,2.40
2017-12-02T10:56:28.057Z,2.50
2017-12-02T10:58:55.523Z,2.40
2017-12-02T11:01:22.976Z,2.40
2017-12-02T11:03:50.449Z,2.40
2017-12-02T11:06:18.667Z,2.40
2017-12-02T11:08:46.130Z,2.40
2017-12-02T11:11:13.591Z,2.40
2017-12-02T11:13:41.064Z,2.50
2017-12-02T11:16:08.523Z,2.50
2017-12-02T11:18:36.000Z,2.50
2017-12-02T11:21:04.222Z,2.50
2017-12-02T11:23:31.687Z,2.50
2017-12-02T11:25:59.131Z,2.60
2017-12-02T11:28:26.608Z,2.60
2017-12-02T11:30:54.074Z,2.60
2017-12-02T11:33:21.551Z,2.60
2017-12-02T11:35:49.017Z,2.60
2017-12-02T11:38:17.253Z,2.70
2017-12-02T11:40:44.738Z,2.60
2017-12-02T11:43:12.205Z,2.60
2017-12-02T11:45:40.439Z,2.60
2017-12-02T11:48:07.905Z,2.60
2017-12-02T11:50:35.366Z,2.60
2017-12-02T11:53:02.847Z,2.50
2017-12-02T11:55:31.111Z,2.60
2017-12-02T11:57:58.559Z,2.60
2017-12-02T12:00:26.035Z,2.60
2017-12-02T12:02:53.491Z,2.60
2017-12-02T12:05:21.749Z,2.60
2017-12-02T12:07:49.203Z,2.50
2017-12-02T12:10:16.672Z,2.60
2017-12-02T12:12:44.130Z,2.50
2017-12-02T12:15:11.595Z,2.40
2017-12-02T12:17:39.816Z,2.50
2017-12-02T12:20:07.287Z,2.40
2017-12-02T12:22:34.751Z,2.50
2017-12-02T12:25:02.227Z,2.40
2017-12-02T12:27:29.683Z,2.50
2017-12-02T12:29:57.762Z,2.40
2017-12-02T12:32:25.222Z,2.40
2017-12-02T12:34:52.683Z,2.40
2017-12-02T12:37:20.919Z,2.30
2017-12-02T12:39:48.418Z,2.40
2017-12-02T12:42:15.878Z,2.30
2017-12-02T12:44:44.107Z,2.50
2017-12-02T12:47:11.596Z,2.50
2017-12-02T12:49:39.074Z,2.50
2017-12-02T12:52:07.320Z,2.60
2017-12-02T12:54:34.774Z,2.60
2017-12-02T12:57:02.243Z,2.50
2017-12-02T12:59:29.702Z,2.60
2017-12-02T13:01:57.167Z,2.60
2017-12-02T13:04:25.393Z,2.50
2017-12-02T13:06:52.882Z,2.40
2017-12-02T13:09:20.339Z,2.40
2017-12-02T13:11:47.810Z,2.40
2017-12-02T13:14:15.266Z,2.50
2017-12-02T13:16:42.740Z,2.40
2017-12-02T13:19:10.959Z,2.30
2017-12-02T13:21:38.440Z,2.30
2017-12-02T13:24:05.896Z,2.40
2017-12-02T13:26:33.370Z,2.40
2017-12-02T13:29:01.695Z,2.30
2017-12-02T13:31:29.175Z,2.30
2017-12-02T13:33:56.651Z,2.30
2017-12-02T13:36:24.143Z,2.30
2017-12-02T13:38:51.631Z,2.20
2017-12-02T13:41:19.112Z,2.20
2017-12-02T13:43:46.591Z,2.30
2017-12-02T13:46:14.835Z,2.20
2017-12-02T13:48:42.291Z,2.20
2017-12-02T13:51:09.747Z,2.40
2017-12-02T13:53:37.220Z,2.30
2017-12-02T13:56:04.686Z,2.20
2017-12-02T13:58:32.155Z,2.20
2017-12-02T14:01:00.376Z,2.10
2017-12-02T14:03:27.853Z,2.10
2017-12-02T14:05:55.307Z,2.00
2017-12-02T14:08:22.766Z,2.00
2017-12-02T14:10:50.228Z,2.00
2017-12-02T14:13:17.700Z,2.00
2017-12-02T14:15:45.160Z,2.00
2017-12-02T14:18:12.643Z,2.00
2017-12-02T14:20:40.105Z,1.90
2017-12-02T14:23:07.571Z,1.80
2017-12-02T14:25:35.034Z,1.90
2017-12-02T14:28:02.520Z,1.90
2017-12-02T14:30:29.967Z,1.90
2017-12-02T14:32:57.475Z,1.80
2017-12-02T14:35:25.695Z,1.80
2017-12-02T14:37:53.169Z,1.70
2017-12-02T14:40:20.948Z,1.90
2017-12-02T14:42:48.420Z,1.90
2017-12-02T14:45:15.870Z,1.90
2017-12-02T14:47:43.766Z,2.00
2017-12-02T14:50:11.219Z,2.00
2017-12-02T14:52:38.672Z,1.80
2017-12-02T14:55:06.903Z,2.00
2017-12-02T14:57:34.367Z,1.90
2017-12-02T15:12:58.693Z,1.60
2017-12-02T15:15:26.154Z,1.60
2017-12-02T15:17:53.610Z,1.60
2017-12-02T15:20:21.103Z,1.60
2017-12-02T15:22:48.563Z,1.60
2017-12-02T15:25:16.032Z,1.50
2017-12-02T15:27:43.910Z,1.50
2017-12-02T15:30:11.371Z,1.50
2017-12-02T15:32:38.839Z,1.40
2017-12-02T15:35:06.303Z,1.40
2017-12-02T15:37:33.755Z,1.30
2017-12-02T15:40:01.229Z,1.30
2017-12-02T15:42:28.684Z,1.30
2017-12-02T15:44:56.186Z,1.30
2017-12-02T15:47:23.647Z,1.20
2017-12-02T15:49:51.154Z,1.20
2017-12-02T15:52:18.579Z,1.20
2017-12-02T15:54:46.049Z,1.20
2017-12-02T15:57:14.442Z,1.20
2017-12-02T15:59:41.904Z,1.20
2017-12-02T16:02:09.368Z,1.30
2017-12-02T16:04:36.827Z,1.30
2017-12-02T16:07:04.289Z,1.20
2017-12-02T16:09:31.756Z,1.10
2017-12-02T16:11:59.234Z,1.10
2017-12-02T16:14:26.686Z,1.10
2017-12-02T16:16:54.150Z,1.10
2017-12-02T16:19:21.612Z,1.00
2017-12-02T16:21:49.084Z,1.00
2017-12-02T16:24:17.318Z,1.00
2017-12-02T16:26:44.797Z,1.00
2017-12-02T16:29:12.247Z,1.00
2017-12-02T16:31:39.716Z,1.00
2017-12-02T16:34:07.221Z,0.90
2017-12-02T16:36:34.693Z,0.80
2017-12-02T16:39:02.149Z,0.80
2017-12-02T16:41:29.619Z,0.80
2017-12-02T16:43:57.079Z,0.80
2017-12-02T16:46:24.548Z,0.90
2017-12-02T16:48:52.002Z,0.70
2017-12-02T16:51:19.474Z,0.70
2017-12-02T16:53:46.931Z,0.70
2017-12-02T16:56:14.410Z,0.70
2017-12-02T16:58:42.638Z,0.70
2017-12-02T17:01:10.108Z,0.60
2017-12-02T17:03:37.565Z,0.70
2017-12-02T17:06:05.027Z,1.00
2017-12-02T17:08:32.484Z,1.10
2017-12-02T17:11:00.760Z,1.30
2017-12-02T17:13:28.224Z,1.30
2017-12-02T17:15:55.682Z,1.50
2017-12-02T17:18:23.162Z,1.40
2017-12-02T17:20:51.382Z,1.20
2017-12-02T17:23:18.852Z,1.20
2017-12-02T17:25:46.302Z,1.10
2017-12-02T17:28:13.768Z,0.90
2017-12-02T17:30:41.227Z,0.80
2017-12-02T17:33:08.698Z,0.90
2017-12-02T17:35:36.164Z,0.80
2017-12-02T17:38:04.395Z,0.60
2017-12-02T17:40:31.856Z,0.70
2017-12-02T17:42:59.319Z,0.60
2017-12-02T17:45:26.779Z,0.60
2017-12-02T17:47:54.255Z,0.60
2017-12-02T17:50:21.715Z,0.70
2017-12-02T17:52:49.955Z,0.70
2017-12-02T17:55:17.419Z,0.70
2017-12-02T17:57:44.891Z,0.70
2017-12-02T18:00:12.351Z,0.60
2017-12-02T18:02:39.818Z,0.60
2017-12-02T18:05:08.047Z,0.50
2017-12-02T18:07:35.520Z,0.50
2017-12-02T18:10:02.977Z,0.50
2017-12-02T18:12:30.443Z,0.40
2017-12-02T18:14:57.912Z,0.40
2017-12-02T18:17:25.371Z,0.40
2017-12-02T18:19:52.828Z,0.30
2017-12-02T18:22:20.279Z,0.30
2017-12-02T18:24:47.752Z,0.30
2017-12-02T18:27:15.213Z,0.30
2017-12-02T18:29:43.444Z,0.30
2017-12-02T18:32:10.899Z,0.30
2017-12-02T18:34:38.371Z,0.20
2017-12-02T18:37:07.899Z,0.20
2017-12-02T18:39:35.374Z,0.30
2017-12-02T18:42:03.599Z,0.10
2017-12-02T18:44:31.067Z,0.10
2017-12-02T18:46:58.547Z,0.20
2017-12-02T18:49:26.018Z,0.20
2017-12-02T18:51:54.239Z,0.30
2017-12-02T18:54:22.481Z,0.30
2017-12-02T18:56:49.932Z,0.30
2017-12-02T18:59:17.406Z,0.30
2017-12-02T19:01:44.863Z,0.30
2017-12-02T19:04:12.380Z,0.30
2017-12-02T19:06:39.830Z,0.30
2017-12-02T19:09:07.295Z,0.30
2017-12-02T19:11:35.526Z,0.40
2017-12-02T19:14:03.015Z,0.40
2017-12-02T19:16:30.486Z,0.40
2017-12-02T19:18:58.717Z,0.30
2017-12-02T19:21:26.182Z,0.30
2017-12-02T19:23:53.664Z,0.20
2017-12-02T19:26:21.115Z,0.20
2017-12-02T19:28:48.579Z,0.20
2017-12-02T19:31:16.052Z,0.20
2017-12-02T19:33:44.279Z,0.20
2017-12-02T19:36:11.752Z,0.20
2017-12-02T19:38:39.221Z,0.30
2017-12-02T19:41:06.683Z,0.30
2017-12-02T19:43:34.138Z,0.30
2017-12-02T19:46:01.616Z,0.30
2017-12-02T19:48:29.845Z,0.40
2017-12-02T19:50:57.320Z,0.30
2017-12-02T19:53:25.547Z,0.30
2017-12-02T19:55:53.019Z,0.30
2017-12-02T19:58:20.483Z,0.30
2017-12-02T20:00:47.948Z,0.20
2017-12-02T20:03:15.408Z,0.20
2017-12-02T20:05:42.979Z,0.10
2017-12-02T20:08:11.987Z,0.00
2017-12-02T20:10:39.455Z,0.00
2017-12-02T20:13:07.680Z,0.20
2017-12-02T20:15:35.228Z,0.10
2017-12-02T20:18:02.685Z,0.20
2017-12-02T20:20:30.147Z,0.10
2017-12-02T20:22:57.608Z,0.20
2017-12-02T20:25:25.078Z,0.20
2017-12-02T20:27:52.532Z,0.20
2017-12-02T20:30:20.006Z,0.20
2017-12-02T20:32:47.458Z,0.20
2017-12-02T20:35:14.934Z,0.30
2017-12-02T20:37:43.564Z,0.40
2017-12-02T20:40:11.045Z,0.40
2017-12-02T20:42:38.519Z,0.40
2017-12-02T20:45:05.991Z,0.50
2017-12-02T20:47:34.240Z,0.40
2017-12-02T20:50:01.702Z,0.40
2017-12-02T20:52:29.188Z,0.40
2017-12-02T20:54:57.404Z,0.40
2017-12-02T20:57:24.880Z,0.40
2017-12-02T20:59:52.338Z,0.40
2017-12-02T21:02:19.811Z,0.40
2017-12-02T21:04:47.276Z,0.40
2017-12-02T21:07:14.755Z,0.50
2017-12-02T21:09:42.983Z,0.50
2017-12-02T21:12:10.460Z,0.50
2017-12-02T21:14:37.917Z,0.50
2017-12-02T21:17:05.389Z,0.60
2017-12-02T21:19:33.611Z,0.60
2017-12-02T21:22:01.089Z,0.50
2017-12-02T21:24:28.543Z,0.50
2017-12-02T21:26:56.019Z,0.50
2017-12-02T21:29:23.482Z,0.50
2017-12-02T21:31:50.947Z,0.50
2017-12-02T21:34:19.172Z,0.50
2017-12-02T21:36:46.638Z,0.50
2017-12-02T21:39:14.125Z,0.50
2017-12-02T21:41:41.616Z,0.60
2017-12-02T21:44:09.117Z,0.60
2017-12-02T21:46:36.590Z,0.60
2017-12-02T21:49:04.062Z,0.70
2017-12-02T21:51:32.287Z,0.60
2017-12-02T21:53:59.760Z,0.60
2017-12-02T21:56:27.220Z,0.60
2017-12-02T21:58:54.686Z,0.60
2017-12-02T22:01:22.147Z,0.60
2017-12-02T22:03:49.620Z,0.60
2017-12-02T22:06:17.087Z,0.50
2017-12-02T22:08:45.323Z,0.50
2017-12-02T22:11:12.783Z,0.50
2017-12-02T22:13:40.249Z,0.60
2017-12-02T22:16:07.719Z,0.60
2017-12-02T22:18:35.192Z,0.60
2017-12-02T22:21:03.420Z,0.60
2017-12-02T22:23:30.882Z,0.60
2017-12-02T22:25:58.353Z,0.60
2017-12-02T22:28:25.828Z,0.50
2017-12-02T22:30:53.287Z,0.50
2017-12-02T22:33:21.600Z,0.50
2017-12-02T22:35:49.062Z,0.50
2017-12-02T22:38:16.528Z,0.60
2017-12-02T22:40:43.999Z,0.60
2017-12-02T22:43:11.471Z,0.60
2017-12-02T22:45:38.940Z,0.60
2017-12-02T22:48:06.418Z,0.60
2017-12-02T22:50:34.642Z,0.60
2017-12-02T22:53:02.954Z,0.60
2017-12-02T22:55:30.443Z,0.60
2017-12-02T22:57:57.898Z,0.60
2017-12-02T23:00:25.375Z,0.60
2017-12-02T23:02:52.910Z,0.60
2017-12-02T23:05:20.384Z,0.60
2017-12-02T23:07:47.846Z,0.60
2017-12-02T23:10:15.324Z,0.60
2017-12-02T23:12:42.780Z,0.60
2017-12-02T23:15:10.251Z,0.60
2017-12-02T23:17:37.744Z,0.50
2017-12-02T23:20:05.969Z,0.60
2017-12-02T23:22:33.432Z,0.60
2017-12-02T23:25:00.895Z,0.60
2017-12-02T23:27:28.352Z,0.60
2017-12-02T23:29:55.823Z,0.60
2017-12-02T23:32:23.288Z,0.60
2017-12-02T23:34:50.750Z,0.50
2017-12-02T23:37:18.979Z,0.50
2017-12-02T23:39:46.451Z,0.50
2017-12-02T23:42:13.902Z,0.50
2017-12-02T23:44:41.375Z,0.50
2017-12-02T23:47:08.833Z,0.50
2017-12-02T23:49:36.328Z,0.50
2017-12-02T23:52:03.772Z,0.60
2017-12-02T23:54:31.998Z,0.50
2017-12-02T23:56:59.495Z,0.50
2017-12-02T23:59:26.938Z,0.50
